RAMO2: Caney River, Ramona, OK

Data processed at Fri Mar 09 2018 23:01


All information presented herein is the property of the government of the United States of America and may be revised or deleted at any time without prior notice.
Dissemination of this information without the expressed written consent of the Public Affairs Office, Tulsa District U.S. Army Corps of Engineers is strictly prohibited.
These data are gathered electronically and, as presented, have not undergone any form of quality control. These data are not guaranteed to be valid or correct.
Go to home page.
Go to station list.

Upstream stations:

Downstream station:
Previous Day
Next Day
Current Day
    
SHEF ID:       RAMO2     Caney River near Ramona, OK
STATION TYPE:  

               PRECIP     STAGE  STAGE(2)  RIV-FLOW   VOLTAGE  BAT-LOAD
                   in        ft        ft       cfs      volt      volt
              Ccp-Rev   Ccp-Rev   Ccp-Rev   Ccp-Rev   Ccp-Rev   Ccp-Rev
(US/Central)
03/07 00:00      0.00      3.09      2.18       120     12.80      ----
03/07 01:00      0.00      3.07      2.23       114     12.80      ----
03/07 02:00      0.00      3.08      2.25       117     12.80      ----
03/07 03:00      0.00      3.09      2.32       120     12.80      ----
03/07 04:00      0.00      3.09      2.39       120     12.70      ----
03/07 05:00      0.00      3.09      2.39       120     12.70      ----
03/07 06:00      0.00      3.09      2.39       120     12.70      ----
03/07 07:00      0.00      3.07      2.40       114     12.70      ----
03/07 08:00      0.00      3.07      2.93       114     13.60      ----
03/07 09:00      0.00      3.06      3.36       111     13.60      ----
03/07 10:00      0.00      3.08      3.30       117     13.60      ----
03/07 11:00      0.00      3.07      3.36       114     13.60      ----
03/07 12:00      0.00      3.05      3.35       109     13.60      ----
03/07 13:00      0.00      3.06      3.22       111     13.70      ----
03/07 14:00      0.00      3.04      3.27       106     13.70      ----
03/07 15:00      0.00      3.07      3.28       114     13.70      ----
03/07 16:00      0.00      3.05      3.20       109     13.60      ----
03/07 17:00      0.00      3.05      2.94       109     13.70      ----
03/07 18:00      0.00      3.04      2.77       106     13.30      ----
03/07 19:00      0.00      3.03      2.58       103     13.00      ----
03/07 20:00      0.00      3.03      2.42       103     12.90      ----
03/07 21:00      0.00      3.03      2.24       103     12.90      ----
03/07 22:00      0.00      3.04      2.22       106     12.90      ----
03/07 23:00      0.00      3.04      2.21       106     12.90      ----